createdAt,value
2018-05-08T21:21:27.770Z,55.00
2018-05-08T21:23:55.274Z,55.00
2018-05-08T21:26:22.762Z,55.20
2018-05-08T21:28:56.211Z,55.30
2018-05-08T21:31:23.694Z,55.40
2018-05-08T21:33:51.184Z,55.40
2018-05-08T21:36:18.701Z,55.50
2018-05-08T21:38:46.182Z,55.80
2018-05-08T21:41:13.685Z,55.80
2018-05-08T21:43:41.938Z,56.40
2018-05-08T21:46:09.679Z,56.30
2018-05-08T21:48:37.179Z,56.50
2018-05-08T21:51:06.034Z,57.30
2018-05-08T21:53:33.678Z,57.00
2018-05-08T21:56:01.161Z,57.60
2018-05-08T21:58:29.481Z,57.30
2018-05-08T22:00:57.749Z,57.30
2018-05-08T22:03:25.994Z,57.80
2018-05-08T22:05:53.493Z,57.80
2018-05-08T22:08:22.191Z,57.70
2018-05-08T22:10:49.911Z,57.70
2018-05-08T22:13:17.892Z,58.00
2018-05-08T22:15:45.374Z,58.20
2018-05-08T22:18:13.638Z,58.00
2018-05-08T22:20:42.298Z,58.10
2018-05-08T22:23:09.784Z,58.10
2018-05-08T22:25:38.063Z,58.80
2018-05-08T22:28:06.313Z,58.80
2018-05-08T22:30:34.268Z,58.70
2018-05-08T22:33:01.758Z,58.60
2018-05-08T22:35:30.002Z,59.50
2018-05-08T22:37:57.509Z,58.70
2018-05-08T22:40:26.147Z,59.20
2018-05-08T22:42:53.650Z,59.10
2018-05-08T22:45:21.897Z,59.80
2018-05-08T22:48:50.034Z,59.80
2018-05-08T22:51:17.592Z,60.00
2018-05-08T22:53:45.869Z,61.30
2018-05-08T22:56:14.113Z,61.80
2018-05-08T22:58:41.576Z,61.70
2018-05-08T23:01:10.695Z,61.60
2018-05-08T23:03:38.170Z,61.60
2018-05-08T23:06:05.670Z,60.80
2018-05-08T23:08:33.725Z,60.40
2018-05-08T23:11:01.205Z,61.90
2018-05-08T23:13:29.523Z,62.30
2018-05-08T23:15:56.997Z,62.20
2018-05-08T23:18:24.493Z,62.20
2018-05-08T23:20:51.982Z,62.50
2018-05-08T23:23:19.472Z,62.80
2018-05-08T23:25:46.981Z,63.00
2018-05-08T23:28:15.222Z,63.60
2018-05-08T23:30:45.231Z,63.60
2018-05-08T23:33:14.441Z,63.10
2018-05-08T23:35:43.737Z,62.40
2018-05-08T23:38:11.234Z,62.50
2018-05-08T23:40:39.917Z,63.00
2018-05-08T23:43:08.175Z,64.30
2018-05-08T23:45:35.653Z,63.50
2018-05-08T23:48:03.894Z,63.00
2018-05-08T23:50:31.397Z,63.00
2018-05-08T23:52:59.643Z,63.40
2018-05-08T23:55:27.489Z,63.30
2018-05-08T23:57:54.996Z,63.30
